Steamboat Canyon, Arizona
Current Conditions -  °F | °C
As of 4:53 PM on Thursday 18 Dec 2014 (Local Time) from KRQE Reporting Station
Broken Clouds Broken Clouds  
Wind Chill: 33°   Ceiling: 12000
Heat Index: 33°   Visibility: 10mi
Dew Point: 26°   Wind: 0mph
Humidity: 75%   Direction: NA
Pressure: 30.11"   Gusts: NA
Location:  35.6053°N, 109.458°W
Report Text: KRQE 182353Z AUTO 00000KT 10SM FEW070 BKN120 01/M03 A3011 RMK AO2 SNB2255E03 SLP182 P0000 60002 T00061033 10039 20000 52009 TSNO
Loading
Personal Weather Stations






























Interactive Weather Map New forecast layout! Learn more

10-Day Weather Forecast

Advertisements
Track Severe Weather on mobile